Morehead-Rowan County Clyde A Thomas Regional (SYM)

 

Airport Diagram
No Airport Diagram Available
Current Weather/Forecast (VFR Conditions)
METAR KSYM 191715Z AUTO VRB06G11KT 10SM FEW046 SCT055 16/04 A2994 RMK AO2
TAF KSYM 191138Z 1912/2012 VRB03KT P6SM SCT070 FM191700 27007KT P6SM SCT100 FM192300 VRB03KT P6SM FEW250

Airport Information

All Charts
General
Chart Name View
TAKEOFF MINIMUMS
ALTERNATE MINIMUMS
TAKEOFF MINIMUMS
ALTERNATE MINIMUMS

Approaches
Chart Name Download
RNAV (GPS) RWY 02
RNAV (GPS) RWY 20
RNAV (GPS) RWY 02
RNAV (GPS) RWY 20


Airport Statistics
Departures Arrivals Local
All Collected Stats since June 2016: 1 2 0
2021 Stats: 0 1 0
April Stats: 0 0 0

Inbound Traffic (Arrivals) - 0

No inbound traffic.


Outbound Traffic (Departures) - 0

No outbound traffic.


Local Traffic (Pattern) - 0

No local traffic.